Terminal Aerodrome Forecast
Issued by NWS

Home | Current Version | Previous Version | Text Only | Print | Product List | Glossary On
Versions: 1 2 3 4 5 6 7 8 9 10 11 12 13
955
FTUS42 TJSJ 290550
TAFNCM
TAF
TNCM 290550Z 2906/3006 12006KT P6SM VCSH SCT018 SCT020 SCT022
     FM291330 13012KT P6SM FEW020 SCT050
     FM292300 11008KT P6SM FEW020 SCT100=

USA.gov is the U.S. government's official web portal to all federal, state and local government web resources and services.